createdAt,value
2023-07-24T00:00:04.424Z,3.10
2023-07-24T00:01:04.432Z,2.60
2023-07-24T00:02:04.380Z,3.20
2023-07-24T00:03:04.567Z,2.90
2023-07-24T00:04:04.365Z,2.90
2023-07-24T00:05:04.373Z,3.30
2023-07-24T00:06:04.334Z,3.00
2023-07-24T00:07:04.325Z,3.10
2023-07-24T00:08:04.318Z,3.30
2023-07-24T00:09:04.308Z,3.00
2023-07-24T00:10:04.309Z,2.90
2023-07-24T00:11:04.278Z,3.20
2023-07-24T00:12:04.268Z,2.90
2023-07-24T00:13:04.386Z,2.90
2023-07-24T00:14:04.244Z,2.90
2023-07-24T00:15:04.259Z,3.00
2023-07-24T00:16:04.228Z,3.20
2023-07-24T00:17:04.264Z,3.00
2023-07-24T00:18:04.248Z,3.30
2023-07-24T00:19:04.206Z,3.20
2023-07-24T00:20:04.184Z,2.90
2023-07-24T00:21:04.173Z,3.20
2023-07-24T00:22:04.160Z,2.90
2023-07-24T00:23:04.148Z,3.10
2023-07-24T00:24:04.135Z,3.20
2023-07-24T00:25:04.140Z,3.30
2023-07-24T00:26:04.114Z,3.10
2023-07-24T00:27:04.121Z,2.80
2023-07-24T00:28:04.104Z,3.20
2023-07-24T00:29:04.119Z,3.00
2023-07-24T00:30:04.082Z,3.50
2023-07-24T00:31:04.089Z,3.50
2023-07-24T00:32:04.055Z,3.50
2023-07-24T00:33:04.074Z,3.80
2023-07-24T00:34:04.034Z,3.10
2023-07-24T00:35:04.015Z,3.30
2023-07-24T00:36:03.999Z,3.60
2023-07-24T00:37:04.007Z,3.90
2023-07-24T00:38:04.001Z,3.80
2023-07-24T00:39:03.970Z,3.90
2023-07-24T00:40:03.957Z,3.50
2023-07-24T00:41:03.974Z,3.40
2023-07-24T00:42:03.937Z,3.30
2023-07-24T00:43:03.926Z,3.70
2023-07-24T00:44:03.936Z,3.30
2023-07-24T00:45:05.507Z,3.50
2023-07-24T00:46:03.883Z,3.80
2023-07-24T00:47:03.917Z,3.50
2023-07-24T00:48:03.925Z,3.80
2023-07-24T00:49:03.872Z,3.70
2023-07-24T00:50:03.866Z,3.50
2023-07-24T00:51:03.842Z,3.50
2023-07-24T00:52:03.916Z,3.40
2023-07-24T00:53:03.853Z,3.40
2023-07-24T00:54:03.851Z,3.60
2023-07-24T00:55:03.842Z,3.20
2023-07-24T00:56:03.778Z,4.40
2023-07-24T00:57:03.760Z,3.60
2023-07-24T00:58:03.863Z,4.00
2023-07-24T00:59:03.781Z,3.50
2023-07-24T01:00:03.854Z,4.00
2023-07-24T01:01:03.927Z,3.90
2023-07-24T01:02:03.812Z,3.80
2023-07-24T01:03:03.921Z,3.70
2023-07-24T01:04:03.887Z,3.90
2023-07-24T01:05:03.735Z,3.90
2023-07-24T01:06:03.685Z,3.70
2023-07-24T01:07:03.644Z,3.60
2023-07-24T01:08:03.631Z,3.60
2023-07-24T01:09:03.659Z,3.70
2023-07-24T01:10:03.610Z,3.80
2023-07-24T01:11:03.605Z,4.00
2023-07-24T01:12:03.585Z,4.00
2023-07-24T01:13:03.585Z,3.40
2023-07-24T01:14:03.567Z,3.30
2023-07-24T01:15:03.600Z,3.60
2023-07-24T01:16:03.546Z,3.70
2023-07-24T01:17:03.610Z,3.80
2023-07-24T01:18:03.539Z,3.70
2023-07-24T01:19:03.504Z,3.90
2023-07-24T01:20:03.492Z,3.70
2023-07-24T01:21:03.583Z,3.70
2023-07-24T01:22:03.470Z,3.60
2023-07-24T01:23:03.466Z,3.80
2023-07-24T01:24:03.454Z,3.40
2023-07-24T01:25:03.435Z,3.90
2023-07-24T01:26:03.692Z,3.80
2023-07-24T01:27:03.427Z,3.80
2023-07-24T01:28:03.413Z,4.00
2023-07-24T01:29:03.392Z,3.90
2023-07-24T01:30:03.373Z,4.70
2023-07-24T01:31:03.445Z,4.10
2023-07-24T01:32:03.414Z,3.50
2023-07-24T01:33:03.454Z,3.60
2023-07-24T01:34:03.334Z,3.80
2023-07-24T01:35:03.320Z,3.80
2023-07-24T01:36:03.308Z,3.80
2023-07-24T01:37:03.297Z,3.80
2023-07-24T01:38:03.283Z,3.70
2023-07-24T01:39:03.279Z,3.80
2023-07-24T01:40:03.260Z,3.60
2023-07-24T01:41:03.247Z,4.10
2023-07-24T01:42:03.246Z,4.00
2023-07-24T01:43:03.224Z,3.80
2023-07-24T01:44:03.220Z,4.00
2023-07-24T01:45:03.203Z,4.20
2023-07-24T01:46:03.286Z,4.50
2023-07-24T01:47:03.210Z,4.30
2023-07-24T01:48:03.184Z,4.60
2023-07-24T01:49:03.192Z,4.90
2023-07-24T01:50:03.142Z,4.40
2023-07-24T01:51:03.158Z,4.60
2023-07-24T01:52:03.120Z,4.10
2023-07-24T01:53:03.116Z,4.30
2023-07-24T01:54:03.098Z,5.10
2023-07-24T01:55:03.100Z,4.40
2023-07-24T01:56:03.085Z,4.30
2023-07-24T01:57:03.062Z,4.50
2023-07-24T01:58:03.052Z,4.50
2023-07-24T01:59:03.044Z,5.40
2023-07-24T02:00:03.036Z,4.80
2023-07-24T02:01:03.047Z,4.60
2023-07-24T02:02:03.007Z,4.80
2023-07-24T02:03:03.106Z,4.70
2023-07-24T02:04:02.982Z,5.00
2023-07-24T02:05:02.994Z,5.30
2023-07-24T02:06:02.958Z,5.10
2023-07-24T02:07:02.950Z,4.40
2023-07-24T02:08:02.940Z,4.70
2023-07-24T02:09:02.930Z,4.70
2023-07-24T02:10:02.912Z,5.20
2023-07-24T02:11:02.912Z,5.40
2023-07-24T02:12:02.893Z,5.10
2023-07-24T02:13:02.881Z,5.10
2023-07-24T02:14:02.865Z,5.30
2023-07-24T02:15:02.873Z,5.10
2023-07-24T02:16:02.991Z,5.40
2023-07-24T02:17:02.845Z,4.80
2023-07-24T02:18:02.822Z,5.30
2023-07-24T02:19:02.808Z,4.90
2023-07-24T02:20:02.836Z,5.30
2023-07-24T02:21:02.812Z,5.40
2023-07-24T02:22:02.772Z,4.80
2023-07-24T02:23:02.768Z,5.00
2023-07-24T02:24:02.752Z,5.10
2023-07-24T02:25:02.737Z,4.80
2023-07-24T02:26:02.742Z,5.00
2023-07-24T02:27:02.717Z,5.10
2023-07-24T02:28:02.709Z,5.00
2023-07-24T02:29:02.711Z,4.70
2023-07-24T02:30:02.702Z,5.00
2023-07-24T02:31:02.685Z,4.40
2023-07-24T02:32:02.664Z,5.00
2023-07-24T02:33:02.667Z,4.60
2023-07-24T02:34:02.636Z,4.70
2023-07-24T02:35:02.668Z,4.50
2023-07-24T02:36:02.617Z,4.60
2023-07-24T02:37:02.633Z,4.40
2023-07-24T02:38:02.595Z,4.60
2023-07-24T02:39:02.582Z,4.50
2023-07-24T02:40:02.571Z,4.70
2023-07-24T02:41:02.559Z,4.60
2023-07-24T02:42:02.546Z,5.00
2023-07-24T02:43:02.539Z,4.80
2023-07-24T02:44:02.522Z,4.30
2023-07-24T02:45:02.531Z,4.70
2023-07-24T02:46:02.537Z,5.00
2023-07-24T02:47:02.489Z,4.40
2023-07-24T02:48:02.500Z,4.40
2023-07-24T02:49:02.476Z,4.10
2023-07-24T02:50:02.477Z,4.10
2023-07-24T02:51:02.461Z,4.90
2023-07-24T02:52:02.438Z,4.60
2023-07-24T02:53:02.456Z,4.00
2023-07-24T02:54:02.420Z,4.60
2023-07-24T02:55:02.399Z,4.20
2023-07-24T02:56:02.390Z,4.60
2023-07-24T02:57:02.384Z,4.40
2023-07-24T02:58:02.367Z,4.30
2023-07-24T02:59:02.355Z,4.30
2023-07-24T03:00:02.345Z,3.90
2023-07-24T03:01:02.354Z,4.40
2023-07-24T03:02:02.326Z,4.20
2023-07-24T03:03:02.374Z,4.30
2023-07-24T03:04:02.298Z,4.20
2023-07-24T03:05:02.302Z,4.00
2023-07-24T03:06:02.280Z,4.20
2023-07-24T03:07:02.371Z,4.50
2023-07-24T03:08:02.255Z,4.70
2023-07-24T03:09:02.278Z,4.80
2023-07-24T03:10:02.265Z,4.60
2023-07-24T03:11:02.223Z,4.70
2023-07-24T03:12:02.213Z,5.00
2023-07-24T03:13:02.212Z,5.10
2023-07-24T03:14:02.226Z,5.50
2023-07-24T03:15:02.175Z,4.90
2023-07-24T03:16:02.196Z,5.10
2023-07-24T03:17:03.591Z,5.60
2023-07-24T03:18:02.227Z,4.90
2023-07-24T03:19:02.150Z,5.30
2023-07-24T03:20:02.126Z,5.80
2023-07-24T03:21:02.121Z,5.40
2023-07-24T03:22:02.095Z,5.60
2023-07-24T03:23:02.087Z,5.90
2023-07-24T03:24:02.077Z,5.50
2023-07-24T03:25:02.091Z,5.60
2023-07-24T03:26:02.074Z,5.90
2023-07-24T03:27:02.048Z,5.90
2023-07-24T03:28:02.034Z,5.90
2023-07-24T03:29:02.021Z,6.30
2023-07-24T03:30:02.005Z,6.00
2023-07-24T03:31:02.087Z,6.40
2023-07-24T03:32:02.007Z,7.20
2023-07-24T03:33:01.993Z,6.40
2023-07-24T03:34:02.007Z,6.80
2023-07-24T03:35:01.986Z,6.80
2023-07-24T03:36:01.952Z,6.40
2023-07-24T03:37:01.944Z,7.40
2023-07-24T03:38:01.948Z,6.60
2023-07-24T03:39:01.924Z,6.80
2023-07-24T03:40:01.908Z,6.00
2023-07-24T03:41:01.917Z,7.10
2023-07-24T03:42:01.887Z,6.40
2023-07-24T03:43:01.866Z,6.60
2023-07-24T03:44:01.857Z,6.80
2023-07-24T03:45:01.870Z,6.70
2023-07-24T03:46:01.842Z,6.40
2023-07-24T03:47:01.858Z,6.70
2023-07-24T03:48:01.860Z,6.70
2023-07-24T03:49:01.804Z,6.60
2023-07-24T03:50:01.848Z,6.60
2023-07-24T03:51:01.789Z,6.40
2023-07-24T03:52:01.780Z,5.90
2023-07-24T03:53:01.770Z,6.30
2023-07-24T03:54:01.758Z,6.50
2023-07-24T03:55:01.805Z,6.20
2023-07-24T03:56:01.736Z,6.10
2023-07-24T03:57:01.754Z,6.20
2023-07-24T03:58:01.709Z,6.30
2023-07-24T03:59:01.691Z,6.00
2023-07-24T04:00:01.727Z,5.80
2023-07-24T04:01:01.718Z,5.70
2023-07-24T04:02:01.675Z,5.60
2023-07-24T04:03:01.702Z,5.40
2023-07-24T04:04:01.633Z,5.20
2023-07-24T04:05:01.637Z,5.20
2023-07-24T04:06:01.625Z,4.90
2023-07-24T04:07:01.598Z,4.90
2023-07-24T04:08:01.591Z,4.80
2023-07-24T04:09:01.575Z,4.70
2023-07-24T04:10:01.582Z,4.60
2023-07-24T04:11:01.704Z,4.30
2023-07-24T04:12:01.553Z,4.70
2023-07-24T04:13:01.574Z,4.60
2023-07-24T04:14:01.529Z,4.20
2023-07-24T04:15:01.518Z,4.30
2023-07-24T04:16:01.507Z,4.70
2023-07-24T04:17:01.579Z,3.70
2023-07-24T04:18:01.505Z,3.90
2023-07-24T04:19:01.474Z,4.10
2023-07-24T04:20:01.454Z,4.20
2023-07-24T04:21:01.444Z,4.00
2023-07-24T04:22:01.432Z,3.90
2023-07-24T04:23:01.446Z,4.00
2023-07-24T04:24:01.418Z,4.20
2023-07-24T04:25:01.397Z,3.70
2023-07-24T04:26:01.392Z,4.20
2023-07-24T04:27:01.390Z,3.60
2023-07-24T04:28:01.367Z,3.70
2023-07-24T04:29:01.426Z,4.10
2023-07-24T04:30:01.392Z,3.70
2023-07-24T04:31:01.403Z,3.70
2023-07-24T04:32:01.337Z,3.70
2023-07-24T04:33:01.364Z,3.60
2023-07-24T04:34:01.310Z,3.60
2023-07-24T04:35:01.312Z,3.40
2023-07-24T04:36:01.278Z,3.50
2023-07-24T04:37:01.287Z,3.50
2023-07-24T04:38:01.254Z,3.00
2023-07-24T04:39:01.260Z,3.40
2023-07-24T04:40:01.239Z,3.60
2023-07-24T04:41:01.218Z,3.10
2023-07-24T04:42:01.210Z,3.10
2023-07-24T04:43:01.197Z,3.00
2023-07-24T04:44:01.183Z,3.00
2023-07-24T04:45:01.197Z,2.80
2023-07-24T04:46:01.249Z,3.50
2023-07-24T04:47:01.223Z,2.80
2023-07-24T04:48:01.213Z,2.90
2023-07-24T04:49:01.133Z,3.00
2023-07-24T04:50:01.118Z,2.70
2023-07-24T04:51:01.142Z,2.90
2023-07-24T04:52:01.098Z,2.90
2023-07-24T04:53:01.092Z,3.10
2023-07-24T04:54:01.084Z,2.90
2023-07-24T04:55:01.074Z,2.70
2023-07-24T04:56:01.090Z,2.70
2023-07-24T04:57:01.090Z,2.90
2023-07-24T04:58:01.043Z,2.90
2023-07-24T04:59:01.018Z,2.90
2023-07-24T05:00:01.015Z,3.00
2023-07-24T05:01:01.117Z,3.50
2023-07-24T05:02:01.011Z,2.80
2023-07-24T05:03:01.003Z,3.30
2023-07-24T05:04:00.972Z,3.60
2023-07-24T05:05:00.967Z,3.00
2023-07-24T05:06:00.957Z,2.90
2023-07-24T05:07:00.937Z,3.40
2023-07-24T05:08:00.922Z,2.70
2023-07-24T05:09:00.913Z,2.70
2023-07-24T05:10:00.946Z,2.90
2023-07-24T05:11:00.884Z,3.10
2023-07-24T05:12:00.877Z,3.40
2023-07-24T05:13:00.883Z,3.10
2023-07-24T05:14:00.857Z,2.50
2023-07-24T05:15:00.839Z,3.00
2023-07-24T05:16:00.866Z,3.10
2023-07-24T05:17:00.854Z,2.80
2023-07-24T05:18:00.871Z,2.80
2023-07-24T05:19:00.796Z,2.90
2023-07-24T05:20:00.787Z,3.30
2023-07-24T05:21:00.782Z,2.80
2023-07-24T05:22:00.787Z,3.20
2023-07-24T05:23:00.763Z,2.80
2023-07-24T05:24:00.776Z,3.10
2023-07-24T05:25:00.729Z,2.70
2023-07-24T05:26:00.724Z,2.80
2023-07-24T05:27:00.706Z,2.80
2023-07-24T05:28:00.723Z,2.70
2023-07-24T05:29:00.708Z,2.90
2023-07-24T05:30:00.679Z,2.60
2023-07-24T05:31:00.664Z,3.00
2023-07-24T05:32:00.716Z,2.60
2023-07-24T05:33:00.764Z,2.80
2023-07-24T05:34:00.632Z,2.50
2023-07-24T05:35:00.622Z,2.60
2023-07-24T05:36:00.614Z,2.90
2023-07-24T05:37:00.613Z,2.50
2023-07-24T05:38:00.620Z,2.40
2023-07-24T05:39:00.588Z,2.90
2023-07-24T05:40:00.570Z,2.60
2023-07-24T05:41:00.555Z,2.90
2023-07-24T05:42:00.552Z,2.70
2023-07-24T05:43:00.533Z,2.70
2023-07-24T05:44:00.520Z,2.80
2023-07-24T05:45:00.524Z,2.70
2023-07-24T05:46:00.517Z,2.90
2023-07-24T05:47:00.482Z,2.70
2023-07-24T05:48:00.536Z,2.80
2023-07-24T05:49:00.535Z,2.90
2023-07-24T05:50:00.460Z,2.60
2023-07-24T05:51:00.449Z,2.90
2023-07-24T05:52:00.445Z,2.70
2023-07-24T05:53:00.419Z,2.80
2023-07-24T05:54:00.429Z,2.70
2023-07-24T05:55:00.404Z,3.60
2023-07-24T05:56:00.408Z,3.30
2023-07-24T05:57:00.374Z,3.20
2023-07-24T05:58:00.371Z,3.30
2023-07-24T05:59:00.348Z,3.50
2023-07-24T06:00:00.341Z,2.60
2023-07-24T06:01:00.341Z,2.80
2023-07-24T06:02:00.353Z,2.70
2023-07-24T06:03:00.322Z,13.10
2023-07-24T06:04:00.359Z,3.10
2023-07-24T06:05:00.380Z,2.80
2023-07-24T06:06:00.278Z,3.30
2023-07-24T06:07:00.267Z,2.90
2023-07-24T06:08:00.255Z,2.80
2023-07-24T06:09:00.250Z,3.40
2023-07-24T06:10:00.233Z,3.00
2023-07-24T06:11:00.222Z,3.10
2023-07-24T06:12:00.251Z,5.70
2023-07-24T06:13:00.202Z,3.40
2023-07-24T06:14:00.199Z,3.70
2023-07-24T06:15:00.202Z,3.40
2023-07-24T06:16:00.186Z,4.30
2023-07-24T06:17:00.172Z,3.30
2023-07-24T06:18:00.206Z,3.80
2023-07-24T06:19:00.137Z,3.30
2023-07-24T06:20:00.184Z,3.20
2023-07-24T06:21:00.133Z,3.10
2023-07-24T06:22:00.098Z,3.20
2023-07-24T06:23:00.186Z,3.40
2023-07-24T06:24:00.077Z,3.00
2023-07-24T06:25:00.075Z,3.30
2023-07-24T06:26:00.060Z,3.20
2023-07-24T06:27:00.044Z,3.30
2023-07-24T06:28:00.054Z,3.30
2023-07-24T06:29:00.060Z,3.50
2023-07-24T06:30:12.909Z,3.40
2023-07-24T06:30:59.998Z,3.30
2023-07-24T06:32:00.000Z,3.20
2023-07-24T06:33:00.002Z,3.40
2023-07-24T06:33:59.968Z,3.10
2023-07-24T06:34:59.957Z,3.20
2023-07-24T06:35:59.945Z,3.50
2023-07-24T06:37:12.840Z,3.00
2023-07-24T06:38:00.950Z,3.50
2023-07-24T06:38:59.920Z,3.90
2023-07-24T06:39:59.896Z,3.40
2023-07-24T06:40:59.884Z,3.30
2023-07-24T06:41:59.889Z,3.30
2023-07-24T06:42:59.869Z,3.00
2023-07-24T06:43:59.858Z,3.30
2023-07-24T06:44:59.849Z,3.20
2023-07-24T06:45:59.886Z,3.40
2023-07-24T06:46:59.830Z,3.60
2023-07-24T06:47:59.848Z,4.00
2023-07-24T06:48:59.797Z,3.10
2023-07-24T06:49:59.807Z,2.90
2023-07-24T06:50:59.807Z,3.40
2023-07-24T06:51:59.778Z,3.50
2023-07-24T06:52:59.786Z,3.50
2023-07-24T06:53:59.746Z,3.30
2023-07-24T06:54:59.731Z,3.20
2023-07-24T06:55:59.723Z,3.70
2023-07-24T06:56:59.708Z,3.70
2023-07-24T06:57:59.698Z,3.60
2023-07-24T06:58:59.688Z,3.70
2023-07-24T06:59:59.678Z,3.50
2023-07-24T07:00:59.689Z,3.50
2023-07-24T07:01:59.658Z,3.70
2023-07-24T07:02:59.688Z,3.70
2023-07-24T07:03:59.735Z,3.50
2023-07-24T07:04:59.622Z,3.40
2023-07-24T07:05:59.611Z,3.70
2023-07-24T07:06:59.605Z,3.60
2023-07-24T07:07:59.592Z,3.60
2023-07-24T07:08:59.702Z,3.40
2023-07-24T07:09:59.571Z,3.30
2023-07-24T07:10:59.619Z,3.70
2023-07-24T07:11:59.571Z,3.50
2023-07-24T07:12:59.538Z,3.60
2023-07-24T07:13:59.520Z,3.80
2023-07-24T07:14:59.518Z,3.70
2023-07-24T07:15:59.556Z,4.00
2023-07-24T07:16:59.885Z,4.10
2023-07-24T07:17:59.495Z,4.20
2023-07-24T07:18:59.466Z,4.20
2023-07-24T07:19:59.458Z,4.60
2023-07-24T07:20:59.443Z,4.60
2023-07-24T07:21:59.433Z,4.00
2023-07-24T07:22:59.424Z,4.20
2023-07-24T07:23:59.408Z,4.20
2023-07-24T07:24:59.440Z,4.30
2023-07-24T07:25:59.385Z,4.20
2023-07-24T07:26:59.378Z,4.70
2023-07-24T07:27:59.382Z,4.30
2023-07-24T07:28:59.369Z,4.30
2023-07-24T07:29:59.344Z,4.00
2023-07-24T07:30:59.403Z,3.90
2023-07-24T07:31:59.329Z,4.20
2023-07-24T07:32:59.361Z,3.90
2023-07-24T07:33:59.298Z,3.80
2023-07-24T07:34:59.289Z,4.00
2023-07-24T07:35:59.943Z,3.80
2023-07-24T07:36:59.261Z,3.60
2023-07-24T07:37:59.248Z,3.70
2023-07-24T07:38:59.241Z,4.00
2023-07-24T07:39:59.238Z,3.80
2023-07-24T07:40:59.246Z,4.00
2023-07-24T07:42:12.175Z,4.00
2023-07-24T07:43:00.273Z,3.80
2023-07-24T07:43:59.183Z,3.80
2023-07-24T07:44:59.187Z,3.70
2023-07-24T07:45:59.167Z,3.60
2023-07-24T07:46:59.196Z,3.90
2023-07-24T07:47:59.185Z,4.70
2023-07-24T07:48:59.135Z,3.80
2023-07-24T07:49:59.324Z,4.00
2023-07-24T07:50:59.108Z,3.90
2023-07-24T07:51:59.093Z,4.00
2023-07-24T07:52:59.088Z,4.00
2023-07-24T07:53:59.071Z,3.80
2023-07-24T07:55:00.373Z,3.70
2023-07-24T07:55:59.057Z,3.60
2023-07-24T07:56:59.080Z,3.70
2023-07-24T07:57:59.047Z,3.70
2023-07-24T07:58:59.018Z,3.80
2023-07-24T07:59:59.016Z,3.70
2023-07-24T08:00:59.012Z,4.10
2023-07-24T08:01:58.985Z,4.20
2023-07-24T08:02:59.027Z,4.30
2023-07-24T08:03:59.012Z,4.10
2023-07-24T08:05:03.675Z,3.90
2023-07-24T08:05:58.943Z,4.20
2023-07-24T08:06:58.927Z,3.80
2023-07-24T08:07:58.930Z,4.10
2023-07-24T08:08:58.907Z,4.10
2023-07-24T08:09:58.895Z,4.20
2023-07-24T08:10:58.888Z,4.10
2023-07-24T08:11:58.924Z,4.40
2023-07-24T08:12:58.892Z,3.80
2023-07-24T08:13:58.852Z,4.60
2023-07-24T08:14:58.859Z,4.00
2023-07-24T08:15:58.872Z,3.90
2023-07-24T08:16:59.074Z,3.80
2023-07-24T08:17:59.115Z,4.30
2023-07-24T08:18:58.944Z,4.30
2023-07-24T08:19:58.954Z,4.20
2023-07-24T08:20:58.794Z,4.50
2023-07-24T08:21:58.766Z,3.80
2023-07-24T08:22:58.757Z,3.90
2023-07-24T08:23:58.739Z,4.20
2023-07-24T08:24:58.825Z,4.30
2023-07-24T08:25:58.726Z,4.50
2023-07-24T08:26:58.735Z,5.00
2023-07-24T08:28:05.344Z,4.70
2023-07-24T08:28:59.743Z,4.50
2023-07-24T08:29:58.675Z,4.30
2023-07-24T08:30:58.713Z,4.40
2023-07-24T08:31:58.720Z,4.70
2023-07-24T08:32:58.873Z,4.50
2023-07-24T08:33:58.646Z,4.50
2023-07-24T08:34:58.645Z,4.50
2023-07-24T08:35:58.613Z,4.40
2023-07-24T08:36:58.606Z,4.10
2023-07-24T08:37:58.590Z,4.30
2023-07-24T08:38:58.570Z,4.50
2023-07-24T08:39:58.566Z,5.00
2023-07-24T08:40:58.552Z,4.00
2023-07-24T08:41:58.544Z,4.10
2023-07-24T08:42:58.552Z,3.90
2023-07-24T08:43:58.526Z,4.10
2023-07-24T08:44:58.536Z,4.40
2023-07-24T08:45:58.504Z,4.40
2023-07-24T08:46:58.532Z,4.20
2023-07-24T08:47:58.506Z,3.90
2023-07-24T08:48:58.465Z,3.90
2023-07-24T08:49:58.465Z,3.90
2023-07-24T08:50:58.448Z,4.00
2023-07-24T08:52:00.590Z,4.00
2023-07-24T08:52:58.424Z,4.00
2023-07-24T08:53:58.429Z,4.20
2023-07-24T08:55:00.006Z,4.00
2023-07-24T08:55:58.392Z,4.10
2023-07-24T08:56:58.401Z,3.80
2023-07-24T08:57:59.980Z,3.90
2023-07-24T08:58:58.368Z,3.70
2023-07-24T08:59:58.351Z,3.60
2023-07-24T09:00:58.423Z,3.80
2023-07-24T09:01:58.333Z,3.90
2023-07-24T09:02:58.497Z,4.10
2023-07-24T09:03:58.375Z,3.80
2023-07-24T09:04:58.303Z,3.60
2023-07-24T09:05:58.281Z,3.80
2023-07-24T09:06:58.287Z,3.60
2023-07-24T09:07:58.259Z,3.60
2023-07-24T09:08:58.255Z,3.70
2023-07-24T09:09:58.265Z,3.10
2023-07-24T09:10:58.262Z,3.50
2023-07-24T09:11:58.226Z,3.60
2023-07-24T09:12:58.409Z,3.40
2023-07-24T09:13:59.784Z,3.40
2023-07-24T09:14:58.199Z,3.70
2023-07-24T09:15:58.172Z,3.90
2023-07-24T09:16:58.287Z,3.80
2023-07-24T09:17:59.080Z,3.60
2023-07-24T09:19:10.323Z,3.70
2023-07-24T09:19:59.152Z,3.50
2023-07-24T09:20:58.131Z,3.50
2023-07-24T09:21:58.131Z,3.50
2023-07-24T09:23:13.724Z,3.70
2023-07-24T09:23:59.114Z,3.40
2023-07-24T09:24:58.100Z,3.40
2023-07-24T09:25:58.067Z,3.50
2023-07-24T09:26:58.909Z,3.40
2023-07-24T09:27:58.048Z,2.90
2023-07-24T09:28:58.061Z,3.10
2023-07-24T09:29:58.031Z,2.90
2023-07-24T09:30:58.089Z,3.10
2023-07-24T09:31:58.004Z,3.60
2023-07-24T09:32:58.110Z,3.00
2023-07-24T09:33:57.977Z,2.90
2023-07-24T09:34:58.042Z,2.90
2023-07-24T09:35:57.956Z,3.20
2023-07-24T09:36:57.985Z,3.30
2023-07-24T09:37:57.939Z,3.30
2023-07-24T09:38:57.922Z,3.20
2023-07-24T09:40:57.903Z,3.50
2023-07-24T09:41:57.892Z,2.90
2023-07-24T09:43:25.119Z,2.90
2023-07-24T09:43:58.916Z,2.80
2023-07-24T09:44:57.859Z,2.80
2023-07-24T09:45:57.856Z,2.80
2023-07-24T09:48:02.665Z,3.10
2023-07-24T09:49:57.851Z,2.70
2023-07-24T09:50:57.797Z,2.60
2023-07-24T09:51:57.787Z,2.90
2023-07-24T09:52:57.780Z,2.60
2023-07-24T09:53:57.765Z,2.50
2023-07-24T09:54:57.758Z,3.00
2023-07-24T09:55:57.757Z,2.80
2023-07-24T09:57:06.976Z,2.50
2023-07-24T09:57:57.723Z,2.50
2023-07-24T09:58:57.727Z,2.60
2023-07-24T09:59:57.714Z,2.50
2023-07-24T10:00:57.692Z,2.60
2023-07-24T10:01:57.712Z,2.60
2023-07-24T10:02:57.691Z,2.60
2023-07-24T10:03:57.670Z,2.70
2023-07-24T10:04:57.762Z,2.60
2023-07-24T10:05:57.639Z,2.60
2023-07-24T10:06:57.633Z,2.90
2023-07-24T10:07:57.619Z,2.70
2023-07-24T10:08:57.611Z,2.90
2023-07-24T10:09:57.623Z,2.60
2023-07-24T10:10:57.593Z,2.50
2023-07-24T10:11:57.574Z,2.70
2023-07-24T10:12:57.568Z,2.90
2023-07-24T10:13:57.555Z,2.90
2023-07-24T10:14:57.546Z,2.90
2023-07-24T10:15:57.726Z,2.80
2023-07-24T10:16:57.522Z,2.90
2023-07-24T10:17:57.553Z,2.90
2023-07-24T10:18:57.514Z,3.10
2023-07-24T10:19:57.493Z,3.30
2023-07-24T10:20:57.591Z,2.90
2023-07-24T10:21:57.467Z,3.10
2023-07-24T10:22:57.460Z,3.30
2023-07-24T10:23:57.453Z,3.10
2023-07-24T10:24:57.485Z,2.80
2023-07-24T10:25:57.425Z,3.10
2023-07-24T10:26:57.423Z,2.60
2023-07-24T10:27:57.403Z,2.80
2023-07-24T10:28:57.396Z,3.10
2023-07-24T10:29:57.426Z,3.00
2023-07-24T10:30:57.453Z,2.90
2023-07-24T10:31:57.503Z,2.80
2023-07-24T10:32:57.448Z,2.90
2023-07-24T10:33:57.467Z,3.10
2023-07-24T10:34:57.356Z,3.00
2023-07-24T10:35:57.322Z,3.20
2023-07-24T10:36:57.349Z,3.20
2023-07-24T10:37:57.324Z,2.80
2023-07-24T10:38:57.372Z,3.00
2023-07-24T10:39:57.284Z,3.10
2023-07-24T10:40:57.283Z,3.00
2023-07-24T10:41:57.282Z,2.90
2023-07-24T10:42:57.256Z,3.10
2023-07-24T10:43:57.250Z,3.00
2023-07-24T10:44:57.231Z,3.00
2023-07-24T10:45:57.268Z,2.90
2023-07-24T10:46:57.224Z,3.40
2023-07-24T10:47:57.264Z,2.90
2023-07-24T10:48:57.189Z,3.00
2023-07-24T10:49:57.177Z,3.20
2023-07-24T10:50:57.175Z,3.40
2023-07-24T10:51:57.167Z,2.80
2023-07-24T10:52:57.176Z,3.30
2023-07-24T10:53:57.157Z,3.00
2023-07-24T10:54:57.125Z,3.30
2023-07-24T10:55:57.112Z,3.30
2023-07-24T10:56:57.109Z,3.20
2023-07-24T10:57:57.102Z,3.10
2023-07-24T10:58:57.090Z,3.20
2023-07-24T10:59:57.082Z,3.00
2023-07-24T11:00:57.161Z,3.20
2023-07-24T11:01:57.184Z,3.30
2023-07-24T11:02:57.089Z,3.10
2023-07-24T11:03:57.042Z,3.20
2023-07-24T11:04:57.039Z,2.90
2023-07-24T11:05:57.046Z,3.10
2023-07-24T11:06:57.006Z,3.50
2023-07-24T11:07:57.000Z,3.50
2023-07-24T11:08:57.010Z,3.70
2023-07-24T11:09:56.974Z,3.40
2023-07-24T11:10:56.957Z,3.50
2023-07-24T11:11:56.954Z,3.50
2023-07-24T11:12:56.943Z,3.60
2023-07-24T11:13:56.926Z,3.50
2023-07-24T11:14:56.922Z,3.50
2023-07-24T11:15:57.018Z,3.60
2023-07-24T11:16:56.899Z,3.90
2023-07-24T11:17:56.969Z,3.60
2023-07-24T11:18:56.890Z,3.70
2023-07-24T11:19:56.866Z,3.80
2023-07-24T11:20:56.901Z,3.40
2023-07-24T11:21:56.844Z,3.50
2023-07-24T11:22:56.829Z,3.40
2023-07-24T11:23:56.828Z,3.60
2023-07-24T11:24:56.932Z,3.40
2023-07-24T11:25:56.823Z,3.20
2023-07-24T11:26:56.798Z,3.60
2023-07-24T11:27:56.784Z,3.30
2023-07-24T11:28:56.819Z,3.20
2023-07-24T11:29:56.769Z,3.60
2023-07-24T11:30:56.775Z,3.40
2023-07-24T11:31:56.747Z,3.60
2023-07-24T11:32:56.750Z,3.80
2023-07-24T11:33:56.717Z,3.50
2023-07-24T11:34:56.709Z,4.60
2023-07-24T11:35:56.698Z,3.70
2023-07-24T11:36:56.682Z,3.70
2023-07-24T11:37:56.674Z,3.40
2023-07-24T11:38:56.662Z,3.60
2023-07-24T11:39:56.663Z,3.30
2023-07-24T11:40:56.671Z,3.40
2023-07-24T11:41:56.648Z,3.60
2023-07-24T11:42:56.624Z,3.40
2023-07-24T11:43:56.614Z,3.50
2023-07-24T11:44:56.625Z,3.20
2023-07-24T11:45:56.599Z,3.20
2023-07-24T11:46:58.993Z,3.20
2023-07-24T11:47:56.614Z,3.20
2023-07-24T11:48:56.555Z,3.50
2023-07-24T11:49:56.560Z,3.30
2023-07-24T11:50:56.583Z,3.40
2023-07-24T11:51:56.535Z,3.40
2023-07-24T11:52:56.516Z,3.20
2023-07-24T11:53:56.557Z,3.60
2023-07-24T11:54:56.507Z,3.30
2023-07-24T11:55:56.513Z,3.50
2023-07-24T11:56:56.508Z,3.60
2023-07-24T11:57:56.482Z,3.90
2023-07-24T11:58:56.458Z,3.70
2023-07-24T11:59:56.453Z,3.20
2023-07-24T12:00:56.439Z,3.40
2023-07-24T12:01:56.438Z,3.40
2023-07-24T12:02:56.527Z,3.60
2023-07-24T12:03:56.485Z,3.30
2023-07-24T12:04:56.398Z,3.50
2023-07-24T12:05:56.409Z,3.40
2023-07-24T12:06:56.380Z,3.00
2023-07-24T12:07:56.376Z,3.10
2023-07-24T12:08:56.383Z,3.40
2023-07-24T12:09:56.354Z,3.80
2023-07-24T12:10:56.344Z,3.60
2023-07-24T12:11:56.337Z,3.50
2023-07-24T12:12:56.344Z,3.60
2023-07-24T12:13:56.309Z,3.60
2023-07-24T12:14:56.301Z,3.40
2023-07-24T12:15:56.803Z,3.20
2023-07-24T12:16:56.277Z,3.20
2023-07-24T12:17:56.306Z,3.30
2023-07-24T12:18:56.261Z,3.50
2023-07-24T12:19:56.270Z,3.40
2023-07-24T12:20:56.240Z,3.70
2023-07-24T12:21:56.240Z,3.40
2023-07-24T12:22:56.252Z,3.10
2023-07-24T12:23:56.232Z,3.30
2023-07-24T12:24:56.285Z,3.70
2023-07-24T12:25:56.201Z,3.50
2023-07-24T12:26:56.186Z,3.60
2023-07-24T12:27:56.174Z,3.20
2023-07-24T12:28:56.275Z,3.40
2023-07-24T12:29:56.152Z,3.50
2023-07-24T12:30:56.191Z,3.50
2023-07-24T12:31:56.131Z,3.10
2023-07-24T12:32:56.213Z,3.20
2023-07-24T12:33:56.115Z,3.30
2023-07-24T12:34:56.108Z,3.80
2023-07-24T12:35:56.097Z,3.90
2023-07-24T12:36:56.110Z,3.40
2023-07-24T12:37:56.077Z,3.40
2023-07-24T12:38:56.081Z,3.30
2023-07-24T12:39:56.054Z,3.20
2023-07-24T12:40:56.050Z,3.00
2023-07-24T12:41:56.034Z,3.20
2023-07-24T12:42:56.036Z,3.50
2023-07-24T12:43:56.025Z,3.30
2023-07-24T12:44:58.732Z,3.70
2023-07-24T12:45:55.998Z,3.60
2023-07-24T12:46:56.045Z,3.60
2023-07-24T12:47:56.038Z,3.40
2023-07-24T12:48:55.975Z,3.70
2023-07-24T12:49:55.963Z,3.70
2023-07-24T12:50:55.949Z,3.70
2023-07-24T12:51:55.944Z,3.80
2023-07-24T12:52:55.931Z,3.80
2023-07-24T12:54:11.570Z,3.50
2023-07-24T12:55:01.841Z,4.00
2023-07-24T12:55:55.905Z,3.90
2023-07-24T12:56:55.938Z,3.80
2023-07-24T12:57:55.893Z,3.90
2023-07-24T12:58:55.876Z,3.60
2023-07-24T12:59:55.946Z,3.60
2023-07-24T13:00:55.903Z,3.80
2023-07-24T13:01:55.860Z,3.60
2023-07-24T13:02:55.927Z,3.60
2023-07-24T13:03:55.840Z,3.30
2023-07-24T13:04:55.816Z,3.20
2023-07-24T13:05:55.807Z,3.60
2023-07-24T13:06:55.794Z,3.80
2023-07-24T13:07:55.790Z,3.70
2023-07-24T13:08:55.778Z,3.30
2023-07-24T13:09:55.787Z,3.50
2023-07-24T13:10:55.755Z,3.50
2023-07-24T13:11:56.266Z,3.60
2023-07-24T13:12:55.737Z,3.50
2023-07-24T13:13:55.941Z,3.00
2023-07-24T13:14:55.715Z,3.70
2023-07-24T13:15:55.705Z,3.90
2023-07-24T13:16:55.775Z,3.50
2023-07-24T13:17:55.718Z,3.70
2023-07-24T13:18:55.670Z,3.80
2023-07-24T13:19:55.667Z,3.70
2023-07-24T13:20:55.684Z,3.60